KLAF/LAF METAR and TAF weather

Enter ICAO airport designator
Station Type Date Time Source
KLAF METAR 2019/10/15 08:54 UTC NOAA

KLAF 150854Z AUTO 07003KT 10SM CLR 06/03 A3004 RMK AO2 SLP173 T00560028 58006


Station Type Date Time Source
KLAF Decoded METAR 2019/10/15 08:54 UTC NOAA

LAFAYETTE PURDUE UNIV AIRPORT , IN, United States (KLAF) 40-25N 86-57W 182M
Oct 15, 2019 - 04:54 AM EDT / 2019.10.15 0854 UTC
Wind: from the ENE (070 degrees) at 3 MPH (3 KT):0
Visibility: 10 mile(s):0
Sky conditions: clear
Temperature: 42.1 F (5.6 C)
Dew Point: 37.0 F (2.8 C)
Relative Humidity: 82%
Pressure (altimeter): 30.04 in. Hg (1017 hPa)
Pressure tendency: 0.02 inches (0.6 hPa) lower than three hours ago
ob: KLAF 150854Z AUTO 07003KT 10SM CLR 06/03 A3004 RMK AO2 SLP173 T00560028 58006
cycle: 9

Station Type Date Time Source
KLAF TAF 2019/10/15 06:24 UTC NOAA

TAF KLAF 150522Z 1506/1606 VRB04KT P6SM SKC
FM151800 21012G26KT P6SM VCSH BKN080
FM160000 23007KT P6SM BKN030
FM160400 30011G19KT P6SM BKN040
AMD LTD TO CLD VIS AND WIND TIL 151300

Example: see airport list